Time;durP1;ratioP1;P1;durP2;ratioP2;P2;SDS_P1;SDS_P2;PMS_P1;PMS_P2;Temp;Humidity;BMP_temperature;BMP_pressure;BME280_temperature;BME280_humidity;BME280_pressure;Samples;Min_cycle;Max_cycle;Signal;HPM_P1;HPM_P2
2021/09/02 00:01:12;;;;;;;;;;;;;;;18.44;69.91;100779.34;1789546;80;20566;-74
2021/09/02 00:03:45;;;;;;;;;;;;;;;18.42;70.05;100783.61;1791280;80;20251;-74
2021/09/02 00:06:17;;;;;;;;;;;;;;;18.41;70.12;100782.76;1792686;80;20191;-74
2021/09/02 00:08:49;;;;;;;;;;;;;;;18.39;70.18;100787.02;1789007;79;20266;-75
2021/09/02 00:11:20;;;;;;;;;;;;;;;18.35;70.25;100793.02;1788275;78;20623;-74
2021/09/02 00:13:54;;;;;;;;;;;;;;;18.32;70.41;100797.28;1790886;79;20183;-74
2021/09/02 00:16:25;;;;;;;;;;;;;;;18.30;70.62;100795.89;1793240;79;20194;-72
2021/09/02 00:18:58;;;;;;;;;;;;;;;18.26;70.74;100806.92;1793978;80;20148;-74
2021/09/02 00:21:29;;;;;;;;;;;;;;;18.24;70.85;100802.16;1794238;80;20224;-74
2021/09/02 00:24:01;;;;;;;;;;;;;;;18.26;70.87;100801.86;1794201;80;20199;-73
2021/09/02 00:26:32;;;;;;;;;;;;;;;18.30;70.81;100806.55;1791452;80;20211;-73
2021/09/02 00:29:04;;;;;;;;;;;;;;;18.32;70.70;100809.09;1789247;80;20282;-73
2021/09/02 00:31:37;;;;;;;;;;;;;;;18.31;70.67;100813.89;1789404;80;20191;-73
2021/09/02 00:34:08;;;;;;;;;;;;;;;18.29;70.62;100815.31;1790666;80;20234;-74
2021/09/02 00:36:42;;;;;;;;;;;;;;;18.28;70.66;100811.66;1791031;80;20587;-74
2021/09/02 00:39:13;;;;;;;;;;;;;;;18.26;70.69;100818.73;1794119;80;20561;-72
2021/09/02 00:41:46;;;;;;;;;;;;;;;18.23;70.80;100810.92;1790877;80;20239;-73
2021/09/02 00:44:40;;;;;;;;;;;;;;;18.25;71.01;100817.06;1789905;78;20195;-74
2021/09/02 00:47:16;;;;;;;;;;;;;;;18.28;71.14;100813.65;1789424;80;20218;-76
2021/09/02 00:49:47;;;;;;;;;;;;;;;18.30;71.18;100825.41;1786278;80;20553;-74
2021/09/02 00:52:31;;;;;;;;;;;;;;;18.29;71.18;100820.34;1789215;80;20608;-75
2021/09/02 00:55:05;;;;;;;;;;;;;;;18.25;71.20;100824.94;1787086;80;20183;-74
2021/09/02 00:57:40;;;;;;;;;;;;;;;18.21;71.39;100816.00;1786905;80;20190;-75
2021/09/02 01:00:13;;;;;;;;;;;;;;;18.22;71.52;100814.88;1786901;80;20204;-75
2021/09/02 01:02:47;;;;;;;;;;;;;;;18.23;71.63;100813.73;1786824;80;20217;-73
2021/09/02 01:05:21;;;;;;;;;;;;;;;18.26;71.78;100817.32;1786883;80;20183;-74
2021/09/02 01:07:54;;;;;;;;;;;;;;;18.29;71.77;100818.12;1812835;75;20245;-74
2021/09/02 01:10:25;;;;;;;;;;;;;;;18.29;71.79;100815.31;1839254;75;20268;-77
2021/09/02 01:12:58;;;;;;;;;;;;;;;18.31;71.80;100810.23;1881849;76;20557;-76
2021/09/02 01:15:30;;;;;;;;;;;;;;;18.32;71.80;100819.78;1878932;76;20176;-74
2021/09/02 01:18:01;;;;;;;;;;;;;;;18.32;71.78;100807.13;1850064;75;20187;-78
2021/09/02 01:20:33;;;;;;;;;;;;;;;18.32;71.82;100811.34;1839208;77;20260;-80
2021/09/02 01:23:07;;;;;;;;;;;;;;;18.34;71.88;100818.08;1832287;78;20243;-74
2021/09/02 01:25:42;;;;;;;;;;;;;;;18.42;71.91;100808.91;1869386;77;20216;-75
2021/09/02 01:28:13;;;;;;;;;;;;;;;18.47;71.90;100805.42;1833827;78;20287;-76
2021/09/02 01:30:45;;;;;;;;;;;;;;;18.51;71.84;100807.04;1867819;77;20212;-76
2021/09/02 01:33:17;;;;;;;;;;;;;;;18.51;71.77;100805.08;1827157;78;20225;-75
2021/09/02 01:35:48;;;;;;;;;;;;;;;18.50;71.87;100806.22;1800466;79;20305;-75
2021/09/02 01:38:20;;;;;;;;;;;;;;;18.51;71.86;100796.64;1816867;79;20251;-75
2021/09/02 01:40:51;;;;;;;;;;;;;;;18.53;71.88;100810.40;1815942;79;20247;-79
2021/09/02 01:43:23;;;;;;;;;;;;;;;18.53;72.03;100813.21;1818287;78;20175;-75
2021/09/02 01:45:54;;;;;;;;;;;;;;;18.50;72.07;100799.20;1832973;78;20247;-73
2021/09/02 01:48:26;;;;;;;;;;;;;;;18.50;72.23;100809.04;1807002;79;20201;-77
2021/09/02 01:50:58;;;;;;;;;;;;;;;18.52;72.42;100801.11;1856928;77;20207;-77
2021/09/02 01:53:29;;;;;;;;;;;;;;;18.57;72.44;100798.77;1830806;77;20189;-73
2021/09/02 01:56:10;;;;;;;;;;;;;;;18.62;72.38;100804.30;1879260;76;20189;-75
2021/09/02 01:58:42;;;;;;;;;;;;;;;18.62;72.32;100804.30;1784630;79;20216;-72
2021/09/02 02:01:14;;;;;;;;;;;;;;;18.59;72.35;100807.16;1806916;77;20552;-72
2021/09/02 02:03:46;;;;;;;;;;;;;;;18.58;72.46;100802.69;1802049;79;20188;-70
2021/09/02 02:06:17;;;;;;;;;;;;;;;18.58;72.55;100803.24;1821652;79;20212;-71
2021/09/02 02:08:49;;;;;;;;;;;;;;;18.59;72.64;100802.13;1792454;79;20258;-71
2021/09/02 02:11:20;;;;;;;;;;;;;;;18.65;72.67;100810.73;1787486;79;20978;-69
2021/09/02 02:13:52;;;;;;;;;;;;;;;18.66;72.62;100808.17;1799992;77;20187;-72
2021/09/02 02:16:23;;;;;;;;;;;;;;;18.65;72.67;100805.09;1786753;80;20179;-70
2021/09/02 02:18:55;;;;;;;;;;;;;;;18.65;72.66;100807.33;1813903;79;20213;-70
2021/09/02 02:21:26;;;;;;;;;;;;;;;18.66;72.59;100802.55;1818735;79;20545;-70
2021/09/02 02:23:58;;;;;;;;;;;;;;;18.68;72.63;100803.05;1814192;79;20660;-71
2021/09/02 02:26:30;;;;;;;;;;;;;;;18.67;72.61;100795.20;1778545;80;20278;-71
2021/09/02 02:29:01;;;;;;;;;;;;;;;18.68;72.63;100807.28;1759210;81;20173;-70
2021/09/02 02:31:33;;;;;;;;;;;;;;;18.67;72.76;100806.46;1779909;79;20611;-69
2021/09/02 02:34:04;;;;;;;;;;;;;;;18.67;72.84;100796.61;1764988;80;20235;-70
2021/09/02 02:36:36;;;;;;;;;;;;;;;18.70;72.83;100803.56;1762578;80;20185;-75
2021/09/02 02:39:07;;;;;;;;;;;;;;;18.73;72.76;100809.99;1779585;79;20251;-72
2021/09/02 02:41:39;;;;;;;;;;;;;;;18.74;72.68;100806.87;1751407;81;20195;-75
2021/09/02 02:44:11;;;;;;;;;;;;;;;18.76;72.63;100807.95;1776564;80;20248;-76
2021/09/02 02:46:43;;;;;;;;;;;;;;;18.75;72.59;100810.50;1773418;79;20271;-75
2021/09/02 02:49:14;;;;;;;;;;;;;;;18.72;72.62;100815.37;1745970;81;20288;-73
2021/09/02 02:51:46;;;;;;;;;;;;;;;18.69;72.67;100817.38;1773815;80;20562;-75
2021/09/02 02:54:17;;;;;;;;;;;;;;;18.61;72.96;100818.11;1764909;80;20177;-77
2021/09/02 02:56:49;;;;;;;;;;;;;;;18.55;73.23;100818.79;1759270;81;20184;-74
2021/09/02 02:59:22;;;;;;;;;;;;;;;18.51;73.32;100824.77;1760246;81;20184;-74
2021/09/02 03:01:53;;;;;;;;;;;;;;;18.51;73.43;100821.11;1758598;81;20211;-74
2021/09/02 03:04:25;;;;;;;;;;;;;;;18.50;73.43;100818.88;1784621;79;20214;-74
2021/09/02 03:06:57;;;;;;;;;;;;;;;18.49;73.45;100820.59;1785576;80;20202;-73
2021/09/02 03:09:28;;;;;;;;;;;;;;;18.47;73.54;100822.89;1775885;80;20240;-74
2021/09/02 03:12:00;;;;;;;;;;;;;;;18.51;73.59;100821.11;1765837;81;20211;-73
2021/09/02 03:14:33;;;;;;;;;;;;;;;18.50;73.57;100817.48;1775583;80;20326;-74
2021/09/02 03:17:06;;;;;;;;;;;;;;;18.48;73.56;100814.70;1770095;80;20211;-74
2021/09/02 03:19:37;;;;;;;;;;;;;;;18.52;73.56;100810.95;1774501;80;20605;-75
2021/09/02 03:22:10;;;;;;;;;;;;;;;18.53;73.52;100820.24;1772674;80;20240;-72
2021/09/02 03:24:43;;;;;;;;;;;;;;;18.54;73.46;100817.69;1765224;81;20263;-73
2021/09/02 03:27:14;;;;;;;;;;;;;;;18.53;73.46;100818.25;1765269;80;20248;-74
2021/09/02 03:29:46;;;;;;;;;;;;;;;18.50;73.47;100823.10;1768705;81;20288;-76
2021/09/02 03:32:17;;;;;;;;;;;;;;;18.49;73.47;100824.81;1770852;80;20573;-74
2021/09/02 03:34:49;;;;;;;;;;;;;;;18.49;73.51;100821.44;1772136;80;20185;-72
2021/09/02 03:37:21;;;;;;;;;;;;;;;18.51;73.48;100825.32;1769734;80;20252;-71
2021/09/02 03:39:52;;;;;;;;;;;;;;;18.55;73.47;100824.42;1770166;80;20257;-71
2021/09/02 03:42:24;;;;;;;;;;;;;;;18.61;73.39;100826.55;1770740;80;20257;-73
2021/09/02 03:44:56;;;;;;;;;;;;;;;18.67;73.29;100828.12;1770592;80;20188;-75
2021/09/02 03:47:28;;;;;;;;;;;;;;;18.69;73.15;100832.85;1768200;80;20586;-75
2021/09/02 03:49:59;;;;;;;;;;;;;;;18.69;73.07;100839.89;1764608;81;20316;-75
2021/09/02 03:52:34;;;;;;;;;;;;;;;18.70;73.06;100834.52;1764583;81;20256;-74
2021/09/02 03:55:07;;;;;;;;;;;;;;;18.73;73.11;100839.54;1764590;81;20188;-73
2021/09/02 03:57:39;;;;;;;;;;;;;;;18.75;73.06;100842.87;1766605;80;20615;-73
2021/09/02 04:00:12;;;;;;;;;;;;;;;18.78;73.07;100846.48;1770447;80;20250;-75
2021/09/02 04:02:43;;;;;;;;;;;;;;;18.86;72.92;100846.59;1772751;80;20186;-73
2021/09/02 04:05:15;;;;;;;;;;;;;;;18.93;72.63;100847.57;1776582;80;20187;-74
2021/09/02 04:07:47;;;;;;;;;;;;;;;18.97;72.42;100852.84;1773374;80;20284;-74
2021/09/02 04:10:20;;;;;;;;;;;;;;;18.98;72.32;100868.59;1775403;74;20219;-74
2021/09/02 04:12:51;;;;;;;;;;;;;;;19.00;72.30;100861.50;1796636;78;20603;-75
2021/09/02 04:15:23;;;;;;;;;;;;;;;19.01;72.27;100857.53;1782664;78;20262;-75
2021/09/02 04:17:55;;;;;;;;;;;;;;;19.04;72.17;100865.38;1770484;78;20295;-73
2021/09/02 04:20:27;;;;;;;;;;;;;;;19.09;72.20;100860.20;1800325;78;20274;-70
2021/09/02 04:22:59;;;;;;;;;;;;;;;19.12;72.30;100859.00;1782610;78;20620;-72
2021/09/02 04:25:32;;;;;;;;;;;;;;;19.13;72.34;100859.85;1782712;78;20287;-73
2021/09/02 04:28:06;;;;;;;;;;;;;;;19.14;72.35;100869.96;1747125;79;20290;-70
2021/09/02 04:30:39;;;;;;;;;;;;;;;19.15;72.50;100864.58;1776767;78;21001;-71
2021/09/02 04:33:10;;;;;;;;;;;;;;;19.13;72.64;100865.48;1794310;78;20277;-77
2021/09/02 04:35:42;;;;;;;;;;;;;;;19.12;72.79;100874.48;1778054;79;20236;-72
2021/09/02 04:38:16;;;;;;;;;;;;;;;19.15;72.83;100871.63;1731989;82;20284;-73
2021/09/02 04:40:48;;;;;;;;;;;;;;;19.18;72.69;100866.20;1739185;81;20675;-70
2021/09/02 04:43:20;;;;;;;;;;;;;;;19.21;72.51;100865.59;1774145;80;20257;-71
2021/09/02 04:45:51;;;;;;;;;;;;;;;19.31;72.34;100862.56;1779385;79;20257;-71
2021/09/02 04:48:23;;;;;;;;;;;;;;;19.37;72.04;100870.32;1778415;79;20184;-70
2021/09/02 04:50:54;;;;;;;;;;;;;;;19.36;71.93;100874.29;1738945;82;20255;-69
2021/09/02 04:53:26;;;;;;;;;;;;;;;19.36;72.01;100875.14;1767970;80;20276;-71
2021/09/02 04:55:57;;;;;;;;;;;;;;;19.33;72.28;100874.94;1768483;79;20619;-69
2021/09/02 04:58:29;;;;;;;;;;;;;;;19.32;72.27;100871.86;1780111;80;20187;-71
2021/09/02 05:01:01;;;;;;;;;;;;;;;19.29;72.32;100880.92;1761949;80;20556;-71
2021/09/02 05:03:32;;;;;;;;;;;;;;;19.21;72.60;100875.45;1772312;79;20189;-69
2021/09/02 05:06:05;;;;;;;;;;;;;;;19.16;72.84;100878.36;1814509;79;20189;-69
2021/09/02 05:08:37;;;;;;;;;;;;;;;19.13;72.99;100877.56;1828857;77;20202;-74
2021/09/02 05:11:09;;;;;;;;;;;;;;;19.12;73.13;100877.86;1800966;77;20215;-70
2021/09/02 05:13:42;;;;;;;;;;;;;;;19.11;73.30;100878.45;1822486;78;20186;-72
2021/09/02 05:16:14;;;;;;;;;;;;;;;19.11;73.25;100883.23;1848177;77;20290;-71
2021/09/02 05:18:46;;;;;;;;;;;;;;;19.13;73.52;100879.56;1840621;78;20247;-70
2021/09/02 05:21:19;;;;;;;;;;;;;;;19.12;73.37;100882.09;1845791;77;20523;-70
2021/09/02 05:23:52;;;;;;;;;;;;;;;19.10;73.53;100887.20;1846654;78;20190;-70
2021/09/02 05:26:23;;;;;;;;;;;;;;;19.09;73.45;100882.73;1846560;77;20226;-72
2021/09/02 05:28:55;;;;;;;;;;;;;;;19.09;73.43;100885.55;1847069;78;20242;-73
2021/09/02 05:31:43;;;;;;;;;;;;;;;19.09;73.45;100886.95;1815003;78;20580;-77
2021/09/02 05:34:14;;;;;;;;;;;;;;;19.09;73.41;100895.39;1828924;76;20251;-83
2021/09/02 05:36:46;;;;;;;;;;;;;;;19.13;73.42;100886.59;1834639;76;20251;-78
2021/09/02 05:39:17;;;;;;;;;;;;;;;19.19;73.15;100890.39;1765783;81;20189;-75
2021/09/02 05:41:50;;;;;;;;;;;;;;;19.22;72.59;100893.19;1786101;78;20277;-76
2021/09/02 05:44:21;;;;;;;;;;;;;;;19.27;72.63;100902.95;1792630;79;20250;-75
2021/09/02 05:46:55;;;;;;;;;;;;;;;19.38;72.39;100904.41;1748466;80;20271;-75
2021/09/02 05:49:28;;;;;;;;;;;;;;;19.53;72.08;100913.94;1744269;80;20188;-83
2021/09/02 05:52:00;;;;;;;;;;;;;;;19.68;72.04;100898.94;1785540;80;20238;-84
2021/09/02 05:54:31;;;;;;;;;;;;;;;19.92;71.48;100904.30;1785817;80;20242;-82
2021/09/02 05:57:03;;;;;;;;;;;;;;;20.15;70.70;100898.99;1785398;80;20254;-82
2021/09/02 05:59:35;;;;;;;;;;;;;;;20.31;69.46;100900.30;1785749;80;20195;-72
2021/09/02 06:02:07;;;;;;;;;;;;;;;20.40;69.02;100897.80;1785643;80;20186;-78
2021/09/02 06:04:39;;;;;;;;;;;;;;;20.45;68.42;100895.42;1785745;80;20277;-71
2021/09/02 06:07:10;;;;;;;;;;;;;;;20.45;67.16;100905.30;1785661;80;20290;-75
2021/09/02 06:09:42;;;;;;;;;;;;;;;20.39;66.81;100908.83;1786387;80;20238;-77
2021/09/02 06:12:14;;;;;;;;;;;;;;;20.32;66.61;100914.09;1786317;80;20225;-71
2021/09/02 06:14:48;;;;;;;;;;;;;;;20.25;66.58;100912.86;1785934;80;20270;-83
2021/09/02 06:17:33;;;;;;;;;;;;;;;20.16;66.82;100923.22;1786234;80;20266;-72
2021/09/02 06:20:06;;;;;;;;;;;;;;;20.08;67.00;100914.11;1786136;80;20289;-73
2021/09/02 06:22:38;;;;;;;;;;;;;;;20.04;67.10;100927.98;1785631;80;20194;-84
2021/09/02 06:25:11;;;;;;;;;;;;;;;20.03;66.53;100933.38;1785691;80;20186;-72
2021/09/02 06:27:43;;;;;;;;;;;;;;;20.05;66.81;100936.70;1788480;80;20230;-72
2021/09/02 06:30:14;;;;;;;;;;;;;;;20.11;66.51;100938.87;1789676;80;20258;-71
2021/09/02 06:32:47;;;;;;;;;;;;;;;20.18;66.49;100927.98;1796919;78;20210;-71
2021/09/02 06:35:18;;;;;;;;;;;;;;;20.30;65.98;100935.31;1807006;76;20170;-76
2021/09/02 06:37:50;;;;;;;;;;;;;;;20.54;64.76;100945.72;1838098;78;20179;-78
2021/09/02 06:40:21;;;;;;;;;;;;;;;20.79;63.10;100946.47;1799960;80;20189;-79
2021/09/02 06:42:54;;;;;;;;;;;;;;;20.98;62.21;100949.95;1800660;80;20590;-75
2021/09/02 06:45:26;;;;;;;;;;;;;;;21.13;61.01;100955.17;1798409;80;20193;-78
2021/09/02 06:47:58;;;;;;;;;;;;;;;21.18;60.90;100963.52;1812785;79;20265;-82
2021/09/02 06:50:29;;;;;;;;;;;;;;;21.25;60.08;100969.52;1813427;79;20217;-75
2021/09/02 06:53:01;;;;;;;;;;;;;;;21.41;59.10;100969.36;1812996;79;20602;-75
2021/09/02 06:55:33;;;;;;;;;;;;;;;21.66;58.00;100966.66;1814059;79;20293;-77
2021/09/02 06:58:05;;;;;;;;;;;;;;;21.84;57.50;100973.22;1814410;79;20284;-76
2021/09/02 07:00:38;;;;;;;;;;;;;;;21.89;57.83;100961.75;1814422;79;20198;-75
2021/09/02 07:03:12;;;;;;;;;;;;;;;21.90;58.32;100967.66;1814274;79;20222;-75
2021/09/02 07:05:43;;;;;;;;;;;;;;;21.85;58.70;100970.06;1813441;79;20253;-76
2021/09/02 07:08:15;;;;;;;;;;;;;;;21.82;59.21;100976.97;1813675;79;20253;-76
2021/09/02 07:10:47;;;;;;;;;;;;;;;21.91;59.44;100972.14;1813263;79;20170;-75
2021/09/02 07:13:20;;;;;;;;;;;;;;;22.13;58.91;100964.36;1813211;79;20253;-75
2021/09/02 07:15:52;;;;;;;;;;;;;;;22.28;58.79;100965.88;1813424;79;20189;-76
2021/09/02 07:18:25;;;;;;;;;;;;;;;22.36;58.81;100974.98;1813398;79;20184;-76
2021/09/02 07:20:57;;;;;;;;;;;;;;;22.44;58.42;100967.92;1813624;79;20288;-74
2021/09/02 07:23:28;;;;;;;;;;;;;;;22.47;58.47;100977.75;1813286;79;20217;-76
2021/09/02 07:26:00;;;;;;;;;;;;;;;22.45;58.17;100971.59;1813355;79;20264;-78
2021/09/02 07:28:33;;;;;;;;;;;;;;;22.45;58.01;100976.69;1813543;79;20265;-84
2021/09/02 07:31:08;;;;;;;;;;;;;;;22.52;57.26;100969.94;1813559;79;20645;-75
2021/09/02 07:33:42;;;;;;;;;;;;;;;22.55;56.88;100979.17;1813652;79;20256;-76
2021/09/02 07:36:15;;;;;;;;;;;;;;;22.59;57.01;100973.66;1812881;79;20311;-76
2021/09/02 07:38:49;;;;;;;;;;;;;;;22.64;57.45;100962.17;1808415;79;20253;-76
2021/09/02 07:41:20;;;;;;;;;;;;;;;22.74;57.46;100973.99;1812358;79;20249;-76
2021/09/02 07:43:53;;;;;;;;;;;;;;;22.80;56.65;100974.67;1812054;79;20181;-76
2021/09/02 07:46:26;;;;;;;;;;;;;;;22.80;56.83;100977.50;1812752;79;20591;-75
2021/09/02 07:48:58;;;;;;;;;;;;;;;22.87;56.71;100968.72;1811841;79;20546;-75
2021/09/02 07:51:30;;;;;;;;;;;;;;;22.88;56.48;100969.00;1811966;79;20177;-74
2021/09/02 07:54:02;;;;;;;;;;;;;;;22.87;56.44;100974.39;1811869;79;20277;-74
2021/09/02 07:56:33;;;;;;;;;;;;;;;22.83;55.96;100979.65;1811832;79;20209;-76
2021/09/02 07:59:07;;;;;;;;;;;;;;;22.79;55.22;100985.75;1811784;79;20224;-74
2021/09/02 08:01:38;;;;;;;;;;;;;;;22.78;55.45;100992.56;1811801;79;20181;-75
2021/09/02 08:04:12;;;;;;;;;;;;;;;22.77;54.54;100989.48;1819543;76;20253;-73
2021/09/02 08:06:43;;;;;;;;;;;;;;;22.71;53.96;100996.48;1821983;79;20173;-80
2021/09/02 08:09:16;;;;;;;;;;;;;;;22.58;53.39;100995.50;1820879;79;20256;-75
2021/09/02 08:11:48;;;;;;;;;;;;;;;22.46;53.42;100993.08;1820227;79;20653;-76
2021/09/02 08:14:22;;;;;;;;;;;;;;;22.41;53.52;100988.95;1820824;79;20204;-72
2021/09/02 08:16:54;;;;;;;;;;;;;;;22.47;53.58;100998.98;1823586;79;20329;-71
2021/09/02 08:19:26;;;;;;;;;;;;;;;22.59;53.60;100988.67;1822662;79;20634;-71
2021/09/02 08:22:00;;;;;;;;;;;;;;;22.75;53.53;100991.83;1821549;79;20549;-73
2021/09/02 08:24:32;;;;;;;;;;;;;;;22.84;53.67;100994.05;1820065;79;20184;-78
2021/09/02 08:27:04;;;;;;;;;;;;;;;22.78;53.01;100997.66;1820199;79;20184;-77
2021/09/02 08:29:35;;;;;;;;;;;;;;;22.64;52.79;100991.91;1820204;79;20193;-76
2021/09/02 08:32:07;;;;;;;;;;;;;;;22.46;52.92;100995.34;1820156;79;20292;-75
2021/09/02 08:34:39;;;;;;;;;;;;;;;22.36;52.96;100997.63;1820122;79;20216;-79
2021/09/02 08:37:11;;;;;;;;;;;;;;;22.36;53.19;100989.95;1823216;75;20599;-81
2021/09/02 08:39:42;;;;;;;;;;;;;;;22.51;53.13;100998.01;1856171;77;20262;-76
2021/09/02 08:42:16;;;;;;;;;;;;;;;22.67;52.40;100991.26;1856253;77;20253;-76
2021/09/02 08:44:47;;;;;;;;;;;;;;;22.83;50.84;100974.83;1856661;77;20214;-75
2021/09/02 08:47:20;;;;;;;;;;;;;;;22.93;49.47;100986.40;1856801;77;20315;-75
2021/09/02 08:49:54;;;;;;;;;;;;;;;22.90;50.35;100973.73;1856767;77;20587;-77
2021/09/02 08:52:30;;;;;;;;;;;;;;;22.89;49.60;100988.22;1832162;77;20178;-81
2021/09/02 08:55:15;;;;;;;;;;;;;;;22.87;49.60;100989.16;1856672;77;20553;-81
2021/09/02 08:57:50;;;;;;;;;;;;;;;22.81;49.07;100984.83;1857199;77;20595;-79
2021/09/02 09:00:26;;;;;;;;;;;;;;;22.72;49.73;100991.06;1856630;77;20282;-76
2021/09/02 09:02:59;;;;;;;;;;;;;;;22.64;50.94;101004.08;1856594;77;20250;-75
2021/09/02 09:05:32;;;;;;;;;;;;;;;22.55;51.35;101010.31;1856443;77;20289;-77
2021/09/02 09:08:11;;;;;;;;;;;;;;;22.48;52.15;101011.39;1856832;77;20182;-80
2021/09/02 09:10:42;;;;;;;;;;;;;;;22.37;52.12;101018.50;1856718;77;20190;-77
2021/09/02 09:13:14;;;;;;;;;;;;;;;22.25;51.81;101030.23;1856702;77;20285;-84
2021/09/02 09:15:48;;;;;;;;;;;;;;;22.10;52.38;101028.70;1856677;77;20214;-77
2021/09/02 09:18:24;;;;;;;;;;;;;;;22.05;53.09;101029.41;1857232;77;20254;-77
2021/09/02 09:21:07;;;;;;;;;;;;;;;22.05;53.52;101034.51;1856317;77;20592;-76
2021/09/02 09:24:02;;;;;;;;;;;;;;;22.04;53.88;101040.48;1856854;77;20281;-75
2021/09/02 09:26:35;;;;;;;;;;;;;;;22.00;54.12;101038.08;1856588;77;20257;-76
2021/09/02 09:29:19;;;;;;;;;;;;;;;22.00;54.22;101039.50;1856978;77;20259;-77
2021/09/02 09:31:50;;;;;;;;;;;;;;;22.04;53.72;101034.26;1856451;77;20250;-76
2021/09/02 09:34:23;;;;;;;;;;;;;;;22.10;53.54;101030.12;1856840;77;20179;-75
2021/09/02 09:36:57;;;;;;;;;;;;;;;22.12;53.39;101029.80;1856405;77;20567;-77
2021/09/02 09:39:29;;;;;;;;;;;;;;;22.15;53.36;101029.13;1850016;76;20178;-77
2021/09/02 09:42:01;;;;;;;;;;;;;;;22.19;53.21;101029.54;1845358;76;20192;-84
2021/09/02 09:44:33;;;;;;;;;;;;;;;22.22;53.38;101033.71;1837477;76;20250;-83
2021/09/02 09:47:18;;;;;;;;;;;;;;;22.24;52.11;101025.14;1878551;76;20163;-85
2021/09/02 09:49:55;;;;;;;;;;;;;;;22.26;51.92;101036.14;1878651;76;20250;-76
2021/09/02 09:52:32;;;;;;;;;;;;;;;22.31;51.53;101046.72;1879120;76;20616;-75
2021/09/02 09:55:09;;;;;;;;;;;;;;;22.27;51.06;101040.64;1878319;76;20592;-85
2021/09/02 09:57:42;;;;;;;;;;;;;;;22.26;51.39;101036.14;1745138;81;20272;-83
2021/09/02 10:00:15;;;;;;;;;;;;;;;22.29;51.94;101031.22;1748256;82;20260;-82
2021/09/02 10:02:49;;;;;;;;;;;;;;;22.32;52.30;101026.33;1748366;81;20561;-76
2021/09/02 10:05:21;;;;;;;;;;;;;;;22.37;52.23;101020.52;1748725;81;20268;-83
2021/09/02 10:07:53;;;;;;;;;;;;;;;22.40;51.04;101027.77;1747870;82;20296;-77
2021/09/02 10:10:47;;;;;;;;;;;;;;;22.43;50.03;101027.72;1724396;82;20261;-81
2021/09/02 10:13:19;;;;;;;;;;;;;;;22.46;48.79;101019.97;1775121;81;20619;-78
2021/09/02 10:15:52;;;;;;;;;;;;;;;22.51;48.88;101022.64;1829195;75;20282;-76
2021/09/02 10:18:24;;;;;;;;;;;;;;;22.51;48.38;101029.72;1859515;75;20250;-76
2021/09/02 10:20:56;;;;;;;;;;;;;;;22.46;49.05;101034.13;1909365;75;20170;-77
2021/09/02 10:23:28;;;;;;;;;;;;;;;22.41;48.49;101034.24;1909491;75;20306;-78
2021/09/02 10:26:02;;;;;;;;;;;;;;;22.37;48.60;101050.24;1909432;75;20611;-76
2021/09/02 10:28:34;;;;;;;;;;;;;;;22.33;49.01;101037.91;1909386;75;20245;-75
2021/09/02 10:31:08;;;;;;;;;;;;;;;22.28;49.17;101039.47;1909281;75;20262;-80
2021/09/02 10:33:44;;;;;;;;;;;;;;;22.21;48.70;101046.20;1905887;75;20242;-73
2021/09/02 10:36:19;;;;;;;;;;;;;;;22.12;48.56;101056.08;1909514;75;20246;-73
2021/09/02 10:38:57;;;;;;;;;;;;;;;22.10;49.37;101056.15;1909466;74;20248;-78
2021/09/02 10:41:47;;;;;;;;;;;;;;;22.13;49.41;101055.51;1909717;75;20242;-77
2021/09/02 10:44:19;;;;;;;;;;;;;;;22.20;49.20;101055.86;1909330;74;20254;-79
2021/09/02 10:46:55;;;;;;;;;;;;;;;22.25;48.49;101074.92;1909394;75;20557;-78
2021/09/02 10:49:31;;;;;;;;;;;;;;;22.26;46.32;101058.78;1909359;75;20182;-79
2021/09/02 10:52:05;;;;;;;;;;;;;;;22.21;46.39;101074.50;1909301;75;20349;-76
2021/09/02 10:54:39;;;;;;;;;;;;;;;22.18;46.57;101077.40;1909166;75;20200;-73
2021/09/02 10:57:13;;;;;;;;;;;;;;;22.16;45.64;101074.64;1910234;75;20323;-81
2021/09/02 10:59:52;;;;;;;;;;;;;;;22.18;46.07;101069.51;1910006;75;20250;-76
2021/09/02 11:02:27;;;;;;;;;;;;;;;22.20;46.67;101080.72;1910000;75;20524;-84
2021/09/02 11:05:03;;;;;;;;;;;;;;;22.20;46.78;101085.56;1910359;75;20262;-71
2021/09/02 11:07:45;;;;;;;;;;;;;;;22.19;46.44;101073.41;1910446;75;20167;-76
2021/09/02 11:10:19;;;;;;;;;;;;;;;22.20;46.33;101072.84;1908083;73;20170;-74
2021/09/02 11:13:01;;;;;;;;;;;;;;;22.21;45.79;101068.27;1876885;76;20173;-75
2021/09/02 11:15:35;;;;;;;;;;;;;;;22.22;46.48;101075.59;1881472;76;20223;-75
2021/09/02 11:18:07;;;;;;;;;;;;;;;22.21;46.71;101073.92;1891104;76;20593;-74
2021/09/02 11:20:42;;;;;;;;;;;;;;;22.18;47.24;101069.51;1886588;76;20548;-75
2021/09/02 11:23:18;;;;;;;;;;;;;;;22.21;48.11;101072.52;1891536;76;20594;-78
2021/09/02 11:25:52;;;;;;;;;;;;;;;22.29;48.09;101060.37;1788867;79;20174;-75
2021/09/02 11:28:52;;;;;;;;;;;;;;;22.43;47.49;101057.45;1788980;80;20285;-75
2021/09/02 11:31:24;;;;;;;;;;;;;;;22.57;47.05;101058.13;1788284;80;20328;-74
2021/09/02 11:33:58;;;;;;;;;;;;;;;22.77;45.26;101064.55;1788260;80;20258;-75
2021/09/02 11:36:30;;;;;;;;;;;;;;;22.90;44.23;101062.12;1788226;79;20255;-75
2021/09/02 11:39:08;;;;;;;;;;;;;;;22.89;44.25;101074.63;1788478;80;20182;-74
2021/09/02 11:41:41;;;;;;;;;;;;;;;22.81;45.27;101091.05;1788369;80;20261;-70
2021/09/02 11:44:19;;;;;;;;;;;;;;;22.70;45.25;101099.61;1788595;79;20242;-90
2021/09/02 11:46:53;;;;;;;;;;;;;;;22.56;44.77;101098.94;1788818;80;20243;-80
2021/09/02 11:49:25;;;;;;;;;;;;;;;22.42;45.36;101102.42;1789033;80;20612;-81
2021/09/02 11:51:58;;;;;;;;;;;;;;;22.30;46.17;101107.92;1788334;80;20259;-72
2021/09/02 11:54:34;;;;;;;;;;;;;;;22.21;45.97;101116.94;1788102;80;20254;-88
2021/09/02 11:57:06;;;;;;;;;;;;;;;22.09;46.42;101123.23;1791418;75;20182;-75
2021/09/02 11:59:50;;;;;;;;;;;;;;;22.00;46.74;101130.02;1790891;80;20209;-73
2021/09/02 12:02:24;;;;;;;;;;;;;;;21.96;47.02;101127.58;1785579;80;20345;-81
2021/09/02 12:04:56;;;;;;;;;;;;;;;21.91;47.38;101127.71;1784334;80;20588;-75
2021/09/02 12:07:28;;;;;;;;;;;;;;;21.89;47.53;101147.02;1812060;79;20181;-80
2021/09/02 12:10:01;;;;;;;;;;;;;;;21.84;47.47;101136.68;1788475;79;20185;-72
2021/09/02 12:12:33;;;;;;;;;;;;;;;21.78;47.88;101137.97;1810628;79;20189;-73
2021/09/02 12:15:07;;;;;;;;;;;;;;;21.75;48.33;101156.98;1810224;79;20254;-85
2021/09/02 12:17:40;;;;;;;;;;;;;;;21.74;49.02;101155.33;1806898;79;20558;-71
2021/09/02 12:20:11;;;;;;;;;;;;;;;21.72;49.40;101146.91;1809708;79;20300;-83
2021/09/02 12:22:43;;;;;;;;;;;;;;;21.69;49.31;101149.80;1809886;79;20618;-76
2021/09/02 12:25:16;;;;;;;;;;;;;;;21.66;48.73;101158.91;1804765;79;20284;-71
2021/09/02 12:27:50;;;;;;;;;;;;;;;21.60;48.45;101158.78;1798636;79;20173;-78
2021/09/02 12:30:41;;;;;;;;;;;;;;;21.54;48.56;101162.05;1799763;79;20232;-81
2021/09/02 12:33:17;;;;;;;;;;;;;;;21.49;49.20;101176.31;1686020;79;20254;-71
2021/09/02 12:35:48;;;;;;;;;;;;;;;21.38;49.38;101171.50;1803827;79;20254;-78
2021/09/02 12:38:38;;;;;;;;;;;;;;;21.28;49.81;101168.09;1795372;79;20305;-85
2021/09/02 12:41:17;;;;;;;;;;;;;;;21.22;50.19;101177.25;1796757;79;20217;-72
2021/09/02 12:44:12;;;;;;;;;;;;;;;21.20;50.26;101177.31;1792889;79;20252;-71
2021/09/02 12:47:18;;;;;;;;;;;;;;;21.19;50.41;101180.73;1786502;79;20177;-72
2021/09/02 12:49:52;;;;;;;;;;;;;;;21.19;50.53;101173.67;1787961;79;20213;-72
2021/09/02 12:52:32;;;;;;;;;;;;;;;21.21;50.83;101179.83;1801517;79;20261;-81
2021/09/02 12:55:07;;;;;;;;;;;;;;;21.24;50.79;101182.59;1797707;79;20190;-73
2021/09/02 12:57:49;;;;;;;;;;;;;;;21.28;50.78;101176.57;1806590;79;20269;-72
2021/09/02 13:00:38;;;;;;;;;;;;;;;21.34;51.53;101173.88;1802265;79;20300;-80
2021/09/02 13:03:06;;;;;;;;;;;;;;;21.35;50.98;101182.04;1791823;78;20547;-71
2021/09/02 13:05:39;;;;;;;;;;;;;;;21.35;50.85;101196.17;1798430;79;20188;-79
2021/09/02 13:08:12;;;;;;;;;;;;;;;21.34;50.68;101190.83;1805309;79;20189;-73